sensor_id;sensor_type;location;lat;lon;timestamp;P1;durP1;ratioP1;P2;durP2;ratioP2
11064;SDS011;5585;52.530;7.320;2023-09-19T00:00:03;4.65;;;1.65;;
11064;SDS011;5585;52.530;7.320;2023-09-19T00:02:31;5.85;;;2.00;;
11064;SDS011;5585;52.530;7.320;2023-09-19T00:04:59;5.50;;;2.30;;
11064;SDS011;5585;52.530;7.320;2023-09-19T00:07:28;7.32;;;1.88;;
11064;SDS011;5585;52.530;7.320;2023-09-19T00:09:55;5.80;;;1.85;;
11064;SDS011;5585;52.530;7.320;2023-09-19T00:12:22;3.90;;;1.48;;
11064;SDS011;5585;52.530;7.320;2023-09-19T00:14:49;3.88;;;1.20;;
11064;SDS011;5585;52.530;7.320;2023-09-19T00:17:16;2.17;;;1.05;;
11064;SDS011;5585;52.530;7.320;2023-09-19T00:19:42;3.88;;;1.40;;
11064;SDS011;5585;52.530;7.320;2023-09-19T00:22:12;2.15;;;1.10;;
11064;SDS011;5585;52.530;7.320;2023-09-19T00:24:40;1.88;;;1.00;;
11064;SDS011;5585;52.530;7.320;2023-09-19T00:27:07;4.65;;;1.05;;
11064;SDS011;5585;52.530;7.320;2023-09-19T00:29:34;3.63;;;1.33;;
11064;SDS011;5585;52.530;7.320;2023-09-19T00:32:00;5.10;;;1.20;;
11064;SDS011;5585;52.530;7.320;2023-09-19T00:34:28;3.13;;;1.33;;
11064;SDS011;5585;52.530;7.320;2023-09-19T00:36:59;3.08;;;1.10;;
11064;SDS011;5585;52.530;7.320;2023-09-19T00:39:27;2.78;;;1.10;;
11064;SDS011;5585;52.530;7.320;2023-09-19T00:41:56;3.10;;;1.20;;
11064;SDS011;5585;52.530;7.320;2023-09-19T00:44:23;3.60;;;1.25;;
11064;SDS011;5585;52.530;7.320;2023-09-19T00:46:49;2.83;;;1.10;;
11064;SDS011;5585;52.530;7.320;2023-09-19T00:49:16;5.90;;;1.33;;
11064;SDS011;5585;52.530;7.320;2023-09-19T00:51:45;3.83;;;1.30;;
11064;SDS011;5585;52.530;7.320;2023-09-19T00:54:12;2.08;;;1.10;;
11064;SDS011;5585;52.530;7.320;2023-09-19T00:56:44;1.73;;;0.90;;
11064;SDS011;5585;52.530;7.320;2023-09-19T00:59:11;2.00;;;0.95;;
11064;SDS011;5585;52.530;7.320;2023-09-19T01:01:38;2.05;;;1.13;;
11064;SDS011;5585;52.530;7.320;2023-09-19T01:04:05;3.28;;;1.17;;
11064;SDS011;5585;52.530;7.320;2023-09-19T01:06:32;3.17;;;1.35;;
11064;SDS011;5585;52.530;7.320;2023-09-19T01:08:58;3.75;;;1.48;;
11064;SDS011;5585;52.530;7.320;2023-09-19T01:11:25;4.13;;;1.48;;
11064;SDS011;5585;52.530;7.320;2023-09-19T01:13:57;3.53;;;1.52;;
11064;SDS011;5585;52.530;7.320;2023-09-19T01:16:32;4.13;;;1.60;;
11064;SDS011;5585;52.530;7.320;2023-09-19T01:19:07;2.70;;;1.20;;
11064;SDS011;5585;52.530;7.320;2023-09-19T01:21:39;4.32;;;1.42;;
11064;SDS011;5585;52.530;7.320;2023-09-19T01:24:18;2.05;;;1.15;;
11064;SDS011;5585;52.530;7.320;2023-09-19T01:26:56;5.65;;;1.60;;
11064;SDS011;5585;52.530;7.320;2023-09-19T01:29:33;4.97;;;1.50;;
11064;SDS011;5585;52.530;7.320;2023-09-19T01:32:03;2.40;;;1.17;;
11064;SDS011;5585;52.530;7.320;2023-09-19T01:34:42;3.00;;;1.33;;
11064;SDS011;5585;52.530;7.320;2023-09-19T01:37:10;2.80;;;1.20;;
11064;SDS011;5585;52.530;7.320;2023-09-19T01:39:37;3.15;;;1.25;;
11064;SDS011;5585;52.530;7.320;2023-09-19T01:42:05;2.90;;;1.17;;
11064;SDS011;5585;52.530;7.320;2023-09-19T01:44:36;3.45;;;1.20;;
11064;SDS011;5585;52.530;7.320;2023-09-19T01:47:08;2.05;;;1.23;;
11064;SDS011;5585;52.530;7.320;2023-09-19T01:49:42;1.42;;;0.90;;
11064;SDS011;5585;52.530;7.320;2023-09-19T01:52:11;4.13;;;1.13;;
11064;SDS011;5585;52.530;7.320;2023-09-19T01:54:41;2.08;;;1.13;;
11064;SDS011;5585;52.530;7.320;2023-09-19T01:57:22;4.55;;;1.45;;
11064;SDS011;5585;52.530;7.320;2023-09-19T01:59:50;2.63;;;1.02;;
11064;SDS011;5585;52.530;7.320;2023-09-19T02:02:21;2.65;;;1.13;;
11064;SDS011;5585;52.530;7.320;2023-09-19T02:04:48;4.10;;;1.20;;
11064;SDS011;5585;52.530;7.320;2023-09-19T02:07:15;2.70;;;1.10;;
11064;SDS011;5585;52.530;7.320;2023-09-19T02:09:42;3.03;;;1.20;;
11064;SDS011;5585;52.530;7.320;2023-09-19T02:12:08;3.17;;;1.30;;
11064;SDS011;5585;52.530;7.320;2023-09-19T02:14:35;3.63;;;1.05;;
11064;SDS011;5585;52.530;7.320;2023-09-19T02:17:02;3.42;;;1.42;;
11064;SDS011;5585;52.530;7.320;2023-09-19T02:19:32;5.00;;;1.42;;
11064;SDS011;5585;52.530;7.320;2023-09-19T02:21:58;2.05;;;1.02;;
11064;SDS011;5585;52.530;7.320;2023-09-19T02:24:27;2.42;;;1.20;;
11064;SDS011;5585;52.530;7.320;2023-09-19T02:26:53;3.00;;;1.42;;
11064;SDS011;5585;52.530;7.320;2023-09-19T02:29:20;3.08;;;1.13;;
11064;SDS011;5585;52.530;7.320;2023-09-19T02:31:47;3.92;;;1.35;;
11064;SDS011;5585;52.530;7.320;2023-09-19T02:34:14;3.08;;;1.38;;
11064;SDS011;5585;52.530;7.320;2023-09-19T02:36:43;3.65;;;1.17;;
11064;SDS011;5585;52.530;7.320;2023-09-19T02:39:10;5.25;;;1.50;;
11064;SDS011;5585;52.530;7.320;2023-09-19T02:41:37;3.05;;;1.30;;
11064;SDS011;5585;52.530;7.320;2023-09-19T02:44:04;2.85;;;1.10;;
11064;SDS011;5585;52.530;7.320;2023-09-19T02:46:32;3.00;;;1.33;;
11064;SDS011;5585;52.530;7.320;2023-09-19T02:49:01;3.05;;;1.40;;
11064;SDS011;5585;52.530;7.320;2023-09-19T02:51:28;5.63;;;1.58;;
11064;SDS011;5585;52.530;7.320;2023-09-19T02:53:56;4.03;;;1.60;;
11064;SDS011;5585;52.530;7.320;2023-09-19T02:56:23;3.65;;;1.50;;
11064;SDS011;5585;52.530;7.320;2023-09-19T02:58:50;3.50;;;1.40;;
11064;SDS011;5585;52.530;7.320;2023-09-19T03:01:16;2.30;;;1.08;;
11064;SDS011;5585;52.530;7.320;2023-09-19T03:03:44;5.18;;;1.42;;
11064;SDS011;5585;52.530;7.320;2023-09-19T03:06:11;3.28;;;1.42;;
11064;SDS011;5585;52.530;7.320;2023-09-19T03:08:40;4.18;;;1.50;;
11064;SDS011;5585;52.530;7.320;2023-09-19T03:11:12;3.05;;;1.40;;
11064;SDS011;5585;52.530;7.320;2023-09-19T03:13:41;6.55;;;1.70;;
11064;SDS011;5585;52.530;7.320;2023-09-19T03:16:07;4.22;;;1.20;;
11064;SDS011;5585;52.530;7.320;2023-09-19T03:18:34;4.35;;;1.77;;
11064;SDS011;5585;52.530;7.320;2023-09-19T03:21:01;3.55;;;1.60;;
11064;SDS011;5585;52.530;7.320;2023-09-19T03:23:27;2.17;;;1.27;;
11064;SDS011;5585;52.530;7.320;2023-09-19T03:25:54;6.47;;;1.80;;
11064;SDS011;5585;52.530;7.320;2023-09-19T03:28:22;3.25;;;1.35;;
11064;SDS011;5585;52.530;7.320;2023-09-19T03:30:57;3.20;;;1.48;;
11064;SDS011;5585;52.530;7.320;2023-09-19T03:33:24;3.95;;;1.67;;
11064;SDS011;5585;52.530;7.320;2023-09-19T03:35:51;5.13;;;1.35;;
11064;SDS011;5585;52.530;7.320;2023-09-19T03:38:18;4.75;;;1.42;;
11064;SDS011;5585;52.530;7.320;2023-09-19T03:40:45;3.53;;;1.50;;
11064;SDS011;5585;52.530;7.320;2023-09-19T03:43:11;2.95;;;1.30;;
11064;SDS011;5585;52.530;7.320;2023-09-19T03:45:39;5.35;;;1.55;;
11064;SDS011;5585;52.530;7.320;2023-09-19T03:48:08;5.30;;;1.70;;
11064;SDS011;5585;52.530;7.320;2023-09-19T03:50:34;6.45;;;1.73;;
11064;SDS011;5585;52.530;7.320;2023-09-19T03:53:01;3.83;;;1.80;;
11064;SDS011;5585;52.530;7.320;2023-09-19T03:55:28;5.18;;;1.92;;
11064;SDS011;5585;52.530;7.320;2023-09-19T03:57:55;4.05;;;1.70;;
11064;SDS011;5585;52.530;7.320;2023-09-19T04:00:22;4.53;;;1.80;;
11064;SDS011;5585;52.530;7.320;2023-09-19T04:02:52;3.55;;;1.60;;
11064;SDS011;5585;52.530;7.320;2023-09-19T04:05:21;4.50;;;1.58;;
11064;SDS011;5585;52.530;7.320;2023-09-19T04:07:47;4.47;;;1.40;;
11064;SDS011;5585;52.530;7.320;2023-09-19T04:10:15;7.13;;;1.80;;
11064;SDS011;5585;52.530;7.320;2023-09-19T04:12:50;6.38;;;1.85;;
11064;SDS011;5585;52.530;7.320;2023-09-19T04:15:16;9.15;;;2.30;;
11064;SDS011;5585;52.530;7.320;2023-09-19T04:17:43;8.00;;;1.88;;
11064;SDS011;5585;52.530;7.320;2023-09-19T04:20:11;6.40;;;1.88;;
11064;SDS011;5585;52.530;7.320;2023-09-19T04:22:38;8.55;;;2.50;;
11064;SDS011;5585;52.530;7.320;2023-09-19T04:25:05;6.25;;;2.55;;
11064;SDS011;5585;52.530;7.320;2023-09-19T04:27:33;9.43;;;2.53;;
11064;SDS011;5585;52.530;7.320;2023-09-19T04:29:59;5.43;;;2.33;;
11064;SDS011;5585;52.530;7.320;2023-09-19T04:32:30;4.53;;;2.03;;
11064;SDS011;5585;52.530;7.320;2023-09-19T04:34:57;8.27;;;2.15;;
11064;SDS011;5585;52.530;7.320;2023-09-19T04:37:28;5.38;;;2.08;;
11064;SDS011;5585;52.530;7.320;2023-09-19T04:39:55;5.25;;;2.00;;
11064;SDS011;5585;52.530;7.320;2023-09-19T04:42:22;7.03;;;1.90;;
11064;SDS011;5585;52.530;7.320;2023-09-19T04:44:49;3.55;;;1.75;;
11064;SDS011;5585;52.530;7.320;2023-09-19T04:47:19;4.13;;;1.60;;
11064;SDS011;5585;52.530;7.320;2023-09-19T04:49:46;6.35;;;1.88;;
11064;SDS011;5585;52.530;7.320;2023-09-19T04:52:12;7.10;;;2.30;;
11064;SDS011;5585;52.530;7.320;2023-09-19T04:54:41;5.05;;;1.95;;
11064;SDS011;5585;52.530;7.320;2023-09-19T04:57:08;5.47;;;1.80;;
11064;SDS011;5585;52.530;7.320;2023-09-19T04:59:34;6.32;;;2.10;;
11064;SDS011;5585;52.530;7.320;2023-09-19T05:02:01;5.38;;;1.92;;
11064;SDS011;5585;52.530;7.320;2023-09-19T05:04:27;4.95;;;1.63;;
11064;SDS011;5585;52.530;7.320;2023-09-19T05:06:54;5.70;;;1.88;;
11064;SDS011;5585;52.530;7.320;2023-09-19T05:09:20;5.78;;;1.90;;
11064;SDS011;5585;52.530;7.320;2023-09-19T05:11:48;5.55;;;1.77;;
11064;SDS011;5585;52.530;7.320;2023-09-19T05:14:16;5.45;;;1.70;;
11064;SDS011;5585;52.530;7.320;2023-09-19T05:16:43;6.97;;;1.83;;
11064;SDS011;5585;52.530;7.320;2023-09-19T05:19:09;4.45;;;1.90;;
11064;SDS011;5585;52.530;7.320;2023-09-19T05:21:37;5.15;;;1.80;;
11064;SDS011;5585;52.530;7.320;2023-09-19T05:24:04;7.32;;;1.95;;
11064;SDS011;5585;52.530;7.320;2023-09-19T05:26:31;7.15;;;2.10;;
11064;SDS011;5585;52.530;7.320;2023-09-19T05:28:59;5.05;;;1.70;;
11064;SDS011;5585;52.530;7.320;2023-09-19T05:31:26;5.63;;;2.00;;
11064;SDS011;5585;52.530;7.320;2023-09-19T05:33:53;6.57;;;2.20;;
11064;SDS011;5585;52.530;7.320;2023-09-19T05:36:19;4.55;;;1.65;;
11064;SDS011;5585;52.530;7.320;2023-09-19T05:38:46;4.03;;;1.70;;
11064;SDS011;5585;52.530;7.320;2023-09-19T05:41:15;7.10;;;1.98;;
11064;SDS011;5585;52.530;7.320;2023-09-19T05:43:43;5.57;;;1.55;;
11064;SDS011;5585;52.530;7.320;2023-09-19T05:46:11;4.45;;;1.65;;
11064;SDS011;5585;52.530;7.320;2023-09-19T05:48:37;6.82;;;1.70;;
11064;SDS011;5585;52.530;7.320;2023-09-19T05:51:04;6.40;;;1.70;;
11064;SDS011;5585;52.530;7.320;2023-09-19T05:53:31;7.35;;;1.50;;
11064;SDS011;5585;52.530;7.320;2023-09-19T05:55:58;4.68;;;2.00;;
11064;SDS011;5585;52.530;7.320;2023-09-19T05:58:26;4.32;;;1.60;;
11064;SDS011;5585;52.530;7.320;2023-09-19T06:00:52;8.70;;;1.90;;
11064;SDS011;5585;52.530;7.320;2023-09-19T06:03:22;6.93;;;1.95;;
11064;SDS011;5585;52.530;7.320;2023-09-19T06:05:49;6.22;;;1.90;;
11064;SDS011;5585;52.530;7.320;2023-09-19T06:08:16;6.53;;;1.90;;
11064;SDS011;5585;52.530;7.320;2023-09-19T06:10:43;7.43;;;1.70;;
11064;SDS011;5585;52.530;7.320;2023-09-19T06:13:12;4.15;;;1.48;;
11064;SDS011;5585;52.530;7.320;2023-09-19T06:15:40;4.45;;;1.40;;
11064;SDS011;5585;52.530;7.320;2023-09-19T06:18:10;4.55;;;1.77;;
11064;SDS011;5585;52.530;7.320;2023-09-19T06:20:41;6.85;;;2.22;;
11064;SDS011;5585;52.530;7.320;2023-09-19T06:23:09;5.15;;;1.65;;
11064;SDS011;5585;52.530;7.320;2023-09-19T06:25:36;4.93;;;1.85;;
11064;SDS011;5585;52.530;7.320;2023-09-19T06:28:02;7.40;;;2.08;;
11064;SDS011;5585;52.530;7.320;2023-09-19T06:30:30;4.10;;;1.40;;
11064;SDS011;5585;52.530;7.320;2023-09-19T06:32:59;5.25;;;1.50;;
11064;SDS011;5585;52.530;7.320;2023-09-19T06:35:26;6.13;;;1.75;;
11064;SDS011;5585;52.530;7.320;2023-09-19T06:37:56;4.65;;;1.73;;
11064;SDS011;5585;52.530;7.320;2023-09-19T06:40:22;5.13;;;1.70;;
11064;SDS011;5585;52.530;7.320;2023-09-19T06:42:50;4.82;;;1.50;;
11064;SDS011;5585;52.530;7.320;2023-09-19T06:45:17;6.63;;;1.55;;
11064;SDS011;5585;52.530;7.320;2023-09-19T06:47:44;5.82;;;1.80;;
11064;SDS011;5585;52.530;7.320;2023-09-19T06:50:14;5.93;;;1.60;;
11064;SDS011;5585;52.530;7.320;2023-09-19T06:52:44;5.07;;;1.65;;
11064;SDS011;5585;52.530;7.320;2023-09-19T06:55:12;6.65;;;1.92;;
11064;SDS011;5585;52.530;7.320;2023-09-19T06:57:41;6.18;;;2.17;;
11064;SDS011;5585;52.530;7.320;2023-09-19T07:00:08;5.50;;;1.40;;
11064;SDS011;5585;52.530;7.320;2023-09-19T07:02:40;6.38;;;1.83;;
11064;SDS011;5585;52.530;7.320;2023-09-19T07:05:07;7.22;;;1.77;;
11064;SDS011;5585;52.530;7.320;2023-09-19T07:07:34;5.55;;;1.85;;
11064;SDS011;5585;52.530;7.320;2023-09-19T07:10:01;7.90;;;1.95;;
11064;SDS011;5585;52.530;7.320;2023-09-19T07:12:29;6.38;;;2.40;;
11064;SDS011;5585;52.530;7.320;2023-09-19T07:14:55;6.28;;;1.70;;
11064;SDS011;5585;52.530;7.320;2023-09-19T07:17:22;4.82;;;1.77;;
11064;SDS011;5585;52.530;7.320;2023-09-19T07:19:49;4.50;;;1.40;;
11064;SDS011;5585;52.530;7.320;2023-09-19T07:22:15;6.07;;;1.80;;
11064;SDS011;5585;52.530;7.320;2023-09-19T07:24:42;4.78;;;1.80;;
11064;SDS011;5585;52.530;7.320;2023-09-19T07:27:08;4.80;;;1.83;;
11064;SDS011;5585;52.530;7.320;2023-09-19T07:29:36;6.85;;;1.65;;
11064;SDS011;5585;52.530;7.320;2023-09-19T07:32:03;6.78;;;2.25;;
11064;SDS011;5585;52.530;7.320;2023-09-19T07:34:31;4.75;;;1.35;;
11064;SDS011;5585;52.530;7.320;2023-09-19T07:36:57;8.60;;;2.00;;
11064;SDS011;5585;52.530;7.320;2023-09-19T07:39:24;3.65;;;1.67;;
11064;SDS011;5585;52.530;7.320;2023-09-19T07:41:50;5.53;;;2.22;;
11064;SDS011;5585;52.530;7.320;2023-09-19T07:44:17;5.20;;;1.65;;
11064;SDS011;5585;52.530;7.320;2023-09-19T07:46:45;13.23;;;2.15;;
11064;SDS011;5585;52.530;7.320;2023-09-19T07:49:14;7.90;;;2.08;;
11064;SDS011;5585;52.530;7.320;2023-09-19T07:51:40;4.85;;;1.60;;
11064;SDS011;5585;52.530;7.320;2023-09-19T07:54:07;3.20;;;1.42;;
11064;SDS011;5585;52.530;7.320;2023-09-19T07:56:35;6.25;;;2.08;;
11064;SDS011;5585;52.530;7.320;2023-09-19T07:59:02;5.78;;;1.75;;
11064;SDS011;5585;52.530;7.320;2023-09-19T08:01:29;6.03;;;1.70;;
11064;SDS011;5585;52.530;7.320;2023-09-19T08:03:56;8.70;;;2.13;;
11064;SDS011;5585;52.530;7.320;2023-09-19T08:06:23;5.43;;;2.10;;
11064;SDS011;5585;52.530;7.320;2023-09-19T08:08:54;5.38;;;1.90;;
11064;SDS011;5585;52.530;7.320;2023-09-19T08:11:22;8.75;;;1.85;;
11064;SDS011;5585;52.530;7.320;2023-09-19T08:13:49;5.43;;;1.63;;
11064;SDS011;5585;52.530;7.320;2023-09-19T08:16:16;4.72;;;1.92;;
11064;SDS011;5585;52.530;7.320;2023-09-19T08:18:46;10.43;;;1.75;;
11064;SDS011;5585;52.530;7.320;2023-09-19T08:21:14;5.68;;;1.70;;
11064;SDS011;5585;52.530;7.320;2023-09-19T08:23:41;5.28;;;1.80;;
11064;SDS011;5585;52.530;7.320;2023-09-19T08:26:08;5.20;;;2.20;;
11064;SDS011;5585;52.530;7.320;2023-09-19T08:28:35;9.23;;;2.30;;
11064;SDS011;5585;52.530;7.320;2023-09-19T08:31:01;6.40;;;1.90;;
11064;SDS011;5585;52.530;7.320;2023-09-19T08:33:29;7.45;;;2.13;;
11064;SDS011;5585;52.530;7.320;2023-09-19T08:35:56;5.55;;;1.60;;
11064;SDS011;5585;52.530;7.320;2023-09-19T08:38:24;11.63;;;2.33;;
11064;SDS011;5585;52.530;7.320;2023-09-19T08:40:56;6.93;;;2.15;;
11064;SDS011;5585;52.530;7.320;2023-09-19T08:43:23;5.05;;;1.63;;
11064;SDS011;5585;52.530;7.320;2023-09-19T08:45:50;6.10;;;1.65;;
11064;SDS011;5585;52.530;7.320;2023-09-19T08:48:22;7.95;;;1.85;;
11064;SDS011;5585;52.530;7.320;2023-09-19T08:50:51;4.50;;;1.63;;
11064;SDS011;5585;52.530;7.320;2023-09-19T08:53:21;4.65;;;1.85;;
11064;SDS011;5585;52.530;7.320;2023-09-19T08:55:54;6.93;;;1.90;;
11064;SDS011;5585;52.530;7.320;2023-09-19T08:58:24;5.90;;;1.77;;
11064;SDS011;5585;52.530;7.320;2023-09-19T09:00:53;7.65;;;2.22;;
11064;SDS011;5585;52.530;7.320;2023-09-19T09:03:20;4.93;;;1.67;;
11064;SDS011;5585;52.530;7.320;2023-09-19T09:05:48;6.57;;;2.22;;
11064;SDS011;5585;52.530;7.320;2023-09-19T09:08:16;5.15;;;1.85;;
11064;SDS011;5585;52.530;7.320;2023-09-19T09:10:45;4.55;;;1.48;;
11064;SDS011;5585;52.530;7.320;2023-09-19T09:13:13;6.72;;;2.03;;
11064;SDS011;5585;52.530;7.320;2023-09-19T09:15:40;7.43;;;2.05;;
11064;SDS011;5585;52.530;7.320;2023-09-19T09:18:09;7.82;;;1.85;;
11064;SDS011;5585;52.530;7.320;2023-09-19T09:20:36;6.68;;;1.85;;
11064;SDS011;5585;52.530;7.320;2023-09-19T09:23:03;5.03;;;1.85;;
11064;SDS011;5585;52.530;7.320;2023-09-19T09:25:49;6.43;;;2.20;;
11064;SDS011;5585;52.530;7.320;2023-09-19T09:28:21;4.97;;;2.08;;
11064;SDS011;5585;52.530;7.320;2023-09-19T09:30:48;7.82;;;2.60;;
11064;SDS011;5585;52.530;7.320;2023-09-19T09:33:15;5.60;;;1.85;;
11064;SDS011;5585;52.530;7.320;2023-09-19T09:35:48;8.27;;;2.22;;
11064;SDS011;5585;52.530;7.320;2023-09-19T09:38:17;7.68;;;2.10;;
11064;SDS011;5585;52.530;7.320;2023-09-19T09:40:47;9.70;;;2.35;;
11064;SDS011;5585;52.530;7.320;2023-09-19T09:43:34;6.40;;;1.80;;
11064;SDS011;5585;52.530;7.320;2023-09-19T09:46:08;5.78;;;1.73;;
11064;SDS011;5585;52.530;7.320;2023-09-19T09:48:57;8.50;;;1.95;;
11064;SDS011;5585;52.530;7.320;2023-09-19T09:51:41;6.00;;;2.03;;
11064;SDS011;5585;52.530;7.320;2023-09-19T09:54:09;7.00;;;2.33;;
11064;SDS011;5585;52.530;7.320;2023-09-19T09:56:41;8.82;;;2.30;;
11064;SDS011;5585;52.530;7.320;2023-09-19T09:59:19;7.20;;;2.17;;
11064;SDS011;5585;52.530;7.320;2023-09-19T10:01:49;9.57;;;2.47;;
11064;SDS011;5585;52.530;7.320;2023-09-19T10:04:26;9.07;;;1.98;;
11064;SDS011;5585;52.530;7.320;2023-09-19T10:06:54;5.75;;;1.95;;
11064;SDS011;5585;52.530;7.320;2023-09-19T10:09:20;7.07;;;2.70;;
11064;SDS011;5585;52.530;7.320;2023-09-19T10:12:00;6.32;;;1.63;;
11064;SDS011;5585;52.530;7.320;2023-09-19T10:14:30;6.80;;;2.22;;
11064;SDS011;5585;52.530;7.320;2023-09-19T10:16:59;5.97;;;1.77;;
11064;SDS011;5585;52.530;7.320;2023-09-19T10:19:29;3.53;;;1.85;;
11064;SDS011;5585;52.530;7.320;2023-09-19T10:21:58;6.18;;;1.92;;
11064;SDS011;5585;52.530;7.320;2023-09-19T10:24:26;8.07;;;1.98;;
11064;SDS011;5585;52.530;7.320;2023-09-19T10:26:53;7.40;;;1.90;;
11064;SDS011;5585;52.530;7.320;2023-09-19T10:29:20;7.05;;;2.08;;
11064;SDS011;5585;52.530;7.320;2023-09-19T10:31:48;6.40;;;1.98;;
11064;SDS011;5585;52.530;7.320;2023-09-19T10:34:15;8.82;;;2.85;;
11064;SDS011;5585;52.530;7.320;2023-09-19T10:36:44;7.93;;;2.30;;
11064;SDS011;5585;52.530;7.320;2023-09-19T10:39:12;6.22;;;2.28;;
11064;SDS011;5585;52.530;7.320;2023-09-19T10:41:43;7.07;;;2.33;;
11064;SDS011;5585;52.530;7.320;2023-09-19T10:44:11;8.77;;;2.20;;
11064;SDS011;5585;52.530;7.320;2023-09-19T10:46:39;5.75;;;2.00;;
11064;SDS011;5585;52.530;7.320;2023-09-19T10:49:07;5.30;;;1.73;;
11064;SDS011;5585;52.530;7.320;2023-09-19T10:51:38;5.93;;;1.80;;
11064;SDS011;5585;52.530;7.320;2023-09-19T10:54:06;9.85;;;2.10;;
11064;SDS011;5585;52.530;7.320;2023-09-19T10:56:37;8.82;;;2.47;;
11064;SDS011;5585;52.530;7.320;2023-09-19T10:59:07;8.60;;;2.17;;
11064;SDS011;5585;52.530;7.320;2023-09-19T11:01:41;5.45;;;1.80;;
11064;SDS011;5585;52.530;7.320;2023-09-19T11:04:23;6.47;;;2.15;;
11064;SDS011;5585;52.530;7.320;2023-09-19T11:07:00;4.13;;;2.00;;
11064;SDS011;5585;52.530;7.320;2023-09-19T11:09:42;5.40;;;2.08;;
11064;SDS011;5585;52.530;7.320;2023-09-19T11:12:11;5.28;;;1.85;;
11064;SDS011;5585;52.530;7.320;2023-09-19T11:14:41;3.53;;;1.60;;
11064;SDS011;5585;52.530;7.320;2023-09-19T11:20:24;8.25;;;2.00;;
11064;SDS011;5585;52.530;7.320;2023-09-19T11:23:19;7.45;;;2.20;;
11064;SDS011;5585;52.530;7.320;2023-09-19T11:25:48;8.88;;;2.22;;
11064;SDS011;5585;52.530;7.320;2023-09-19T11:28:32;3.50;;;1.40;;
11064;SDS011;5585;52.530;7.320;2023-09-19T11:30:59;4.78;;;1.77;;
11064;SDS011;5585;52.530;7.320;2023-09-19T11:33:46;4.93;;;1.40;;
11064;SDS011;5585;52.530;7.320;2023-09-19T11:36:16;4.97;;;2.00;;
11064;SDS011;5585;52.530;7.320;2023-09-19T11:38:59;5.78;;;1.67;;
11064;SDS011;5585;52.530;7.320;2023-09-19T11:41:40;6.65;;;1.90;;
11064;SDS011;5585;52.530;7.320;2023-09-19T11:46:53;4.30;;;1.50;;
11064;SDS011;5585;52.530;7.320;2023-09-19T11:49:23;6.85;;;2.08;;
11064;SDS011;5585;52.530;7.320;2023-09-19T11:51:56;5.70;;;1.85;;
11064;SDS011;5585;52.530;7.320;2023-09-19T11:54:24;4.40;;;1.88;;
11064;SDS011;5585;52.530;7.320;2023-09-19T11:56:54;4.93;;;1.50;;
11064;SDS011;5585;52.530;7.320;2023-09-19T11:59:21;5.90;;;1.80;;
11064;SDS011;5585;52.530;7.320;2023-09-19T12:01:50;5.47;;;1.48;;
11064;SDS011;5585;52.530;7.320;2023-09-19T12:04:20;6.68;;;2.00;;
11064;SDS011;5585;52.530;7.320;2023-09-19T12:06:57;3.75;;;1.38;;
11064;SDS011;5585;52.530;7.320;2023-09-19T12:09:24;5.93;;;2.25;;
11064;SDS011;5585;52.530;7.320;2023-09-19T12:11:51;3.55;;;1.60;;
11064;SDS011;5585;52.530;7.320;2023-09-19T12:14:21;5.00;;;1.80;;
11064;SDS011;5585;52.530;7.320;2023-09-19T12:16:50;5.18;;;1.73;;
11064;SDS011;5585;52.530;7.320;2023-09-19T12:19:20;4.45;;;1.92;;
11064;SDS011;5585;52.530;7.320;2023-09-19T12:21:56;4.80;;;1.60;;
11064;SDS011;5585;52.530;7.320;2023-09-19T12:24:26;4.65;;;1.70;;
11064;SDS011;5585;52.530;7.320;2023-09-19T12:26:55;5.88;;;1.50;;
11064;SDS011;5585;52.530;7.320;2023-09-19T12:29:29;5.82;;;1.80;;
11064;SDS011;5585;52.530;7.320;2023-09-19T12:31:57;5.70;;;1.90;;
11064;SDS011;5585;52.530;7.320;2023-09-19T12:34:24;9.70;;;2.15;;
11064;SDS011;5585;52.530;7.320;2023-09-19T12:37:04;4.65;;;1.60;;
11064;SDS011;5585;52.530;7.320;2023-09-19T12:39:37;5.35;;;1.88;;
11064;SDS011;5585;52.530;7.320;2023-09-19T12:42:06;4.88;;;1.73;;
11064;SDS011;5585;52.530;7.320;2023-09-19T12:44:34;5.63;;;2.28;;
11064;SDS011;5585;52.530;7.320;2023-09-19T12:47:07;3.83;;;1.70;;
11064;SDS011;5585;52.530;7.320;2023-09-19T12:49:34;4.93;;;1.30;;
11064;SDS011;5585;52.530;7.320;2023-09-19T12:52:00;6.10;;;1.73;;
11064;SDS011;5585;52.530;7.320;2023-09-19T12:54:38;4.55;;;1.70;;
11064;SDS011;5585;52.530;7.320;2023-09-19T12:57:05;5.53;;;1.42;;
11064;SDS011;5585;52.530;7.320;2023-09-19T12:59:31;7.18;;;1.60;;
11064;SDS011;5585;52.530;7.320;2023-09-19T13:02:03;4.57;;;1.50;;
11064;SDS011;5585;52.530;7.320;2023-09-19T13:04:31;5.40;;;1.60;;
11064;SDS011;5585;52.530;7.320;2023-09-19T13:06:59;5.50;;;1.70;;
11064;SDS011;5585;52.530;7.320;2023-09-19T13:09:27;4.05;;;1.60;;
11064;SDS011;5585;52.530;7.320;2023-09-19T13:12:00;6.53;;;1.80;;
11064;SDS011;5585;52.530;7.320;2023-09-19T13:14:28;4.43;;;1.65;;
11064;SDS011;5585;52.530;7.320;2023-09-19T13:16:57;6.05;;;1.70;;
11064;SDS011;5585;52.530;7.320;2023-09-19T13:19:35;5.40;;;1.60;;
11064;SDS011;5585;52.530;7.320;2023-09-19T13:22:02;4.90;;;1.40;;
11064;SDS011;5585;52.530;7.320;2023-09-19T13:24:29;6.20;;;1.52;;
11064;SDS011;5585;52.530;7.320;2023-09-19T13:26:56;5.72;;;1.67;;
11064;SDS011;5585;52.530;7.320;2023-09-19T13:29:24;6.07;;;1.27;;
11064;SDS011;5585;52.530;7.320;2023-09-19T13:31:51;4.32;;;1.55;;
11064;SDS011;5585;52.530;7.320;2023-09-19T13:34:19;4.78;;;1.60;;
11064;SDS011;5585;52.530;7.320;2023-09-19T13:36:46;3.78;;;1.50;;
11064;SDS011;5585;52.530;7.320;2023-09-19T13:39:13;4.20;;;1.33;;
11064;SDS011;5585;52.530;7.320;2023-09-19T13:41:40;4.30;;;1.58;;
11064;SDS011;5585;52.530;7.320;2023-09-19T13:44:07;5.78;;;1.80;;
11064;SDS011;5585;52.530;7.320;2023-09-19T13:46:37;3.25;;;1.20;;
11064;SDS011;5585;52.530;7.320;2023-09-19T13:49:03;4.97;;;1.63;;
11064;SDS011;5585;52.530;7.320;2023-09-19T13:51:30;4.80;;;1.42;;
11064;SDS011;5585;52.530;7.320;2023-09-19T13:53:57;4.55;;;1.40;;
11064;SDS011;5585;52.530;7.320;2023-09-19T13:56:24;4.18;;;1.48;;
11064;SDS011;5585;52.530;7.320;2023-09-19T13:58:52;4.13;;;1.55;;
11064;SDS011;5585;52.530;7.320;2023-09-19T14:01:19;4.72;;;1.65;;
11064;SDS011;5585;52.530;7.320;2023-09-19T14:03:47;6.75;;;1.45;;
11064;SDS011;5585;52.530;7.320;2023-09-19T14:06:14;3.75;;;1.33;;
11064;SDS011;5585;52.530;7.320;2023-09-19T14:08:41;3.42;;;1.48;;
11064;SDS011;5585;52.530;7.320;2023-09-19T14:11:08;4.38;;;1.27;;
11064;SDS011;5585;52.530;7.320;2023-09-19T14:13:34;4.35;;;1.50;;
11064;SDS011;5585;52.530;7.320;2023-09-19T14:16:02;4.00;;;1.40;;
11064;SDS011;5585;52.530;7.320;2023-09-19T14:18:30;3.38;;;0.90;;
11064;SDS011;5585;52.530;7.320;2023-09-19T14:20:58;3.03;;;1.25;;
11064;SDS011;5585;52.530;7.320;2023-09-19T14:23:28;4.45;;;1.63;;
11064;SDS011;5585;52.530;7.320;2023-09-19T14:25:55;5.82;;;1.45;;
11064;SDS011;5585;52.530;7.320;2023-09-19T14:28:21;2.53;;;1.15;;
11064;SDS011;5585;52.530;7.320;2023-09-19T14:30:50;5.63;;;1.40;;
11064;SDS011;5585;52.530;7.320;2023-09-19T14:33:16;4.35;;;1.13;;
11064;SDS011;5585;52.530;7.320;2023-09-19T14:35:43;6.00;;;1.73;;
11064;SDS011;5585;52.530;7.320;2023-09-19T14:38:11;4.10;;;1.23;;
11064;SDS011;5585;52.530;7.320;2023-09-19T14:40:37;3.58;;;1.30;;
11064;SDS011;5585;52.530;7.320;2023-09-19T14:43:04;5.63;;;1.40;;
11064;SDS011;5585;52.530;7.320;2023-09-19T14:45:35;4.75;;;1.55;;
11064;SDS011;5585;52.530;7.320;2023-09-19T14:48:01;6.18;;;1.38;;
11064;SDS011;5585;52.530;7.320;2023-09-19T14:50:30;4.70;;;1.33;;
11064;SDS011;5585;52.530;7.320;2023-09-19T14:52:58;8.80;;;1.50;;
11064;SDS011;5585;52.530;7.320;2023-09-19T14:55:28;4.35;;;1.00;;
11064;SDS011;5585;52.530;7.320;2023-09-19T14:57:59;2.58;;;1.17;;
11064;SDS011;5585;52.530;7.320;2023-09-19T15:00:27;3.17;;;1.02;;
11064;SDS011;5585;52.530;7.320;2023-09-19T15:02:54;3.22;;;1.55;;
11064;SDS011;5585;52.530;7.320;2023-09-19T15:05:21;3.05;;;1.40;;
11064;SDS011;5585;52.530;7.320;2023-09-19T15:07:47;1.40;;;0.70;;
11064;SDS011;5585;52.530;7.320;2023-09-19T15:10:14;6.78;;;1.10;;
11064;SDS011;5585;52.530;7.320;2023-09-19T15:12:43;4.45;;;1.20;;
11064;SDS011;5585;52.530;7.320;2023-09-19T15:15:09;4.20;;;1.35;;